createdAt,value
2019-06-26T00:00:19.056Z,5.05
2019-06-26T00:01:23.641Z,5.57
2019-06-26T00:02:28.290Z,5.58
2019-06-26T00:03:32.645Z,5.87
2019-06-26T00:04:37.282Z,5.67
2019-06-26T00:05:41.681Z,6.15
2019-06-26T00:06:47.676Z,5.72
2019-06-26T00:07:53.197Z,5.30
2019-06-26T00:08:57.785Z,5.65
2019-06-26T00:10:02.293Z,6.40
2019-06-26T00:11:07.065Z,5.78
2019-06-26T00:12:11.452Z,5.47
2019-06-26T00:13:25.587Z,5.53
2019-06-26T00:14:22.089Z,5.45
2019-06-26T00:15:26.701Z,6.20
2019-06-26T00:16:31.116Z,5.25
2019-06-26T00:17:35.853Z,5.30
2019-06-26T00:18:40.216Z,5.80
2019-06-26T00:19:44.808Z,5.65
2019-06-26T00:20:49.245Z,6.15
2019-06-26T00:21:53.816Z,5.80
2019-06-26T00:22:58.459Z,6.05
2019-06-26T00:24:03.085Z,5.67
2019-06-26T00:25:07.530Z,5.67
2019-06-26T00:26:12.095Z,6.47
2019-06-26T00:27:16.647Z,6.08
2019-06-26T00:28:22.305Z,6.57
2019-06-26T00:29:26.661Z,6.60
2019-06-26T00:30:31.241Z,6.27
2019-06-26T00:31:35.618Z,6.60
2019-06-26T00:32:40.233Z,6.75
2019-06-26T00:33:44.589Z,6.78
2019-06-26T00:34:50.263Z,6.58
2019-06-26T00:35:54.673Z,6.87
2019-06-26T00:36:59.248Z,6.83
2019-06-26T00:38:04.641Z,6.08
2019-06-26T00:39:09.217Z,6.60
2019-06-26T00:40:13.680Z,6.17
2019-06-26T00:41:18.564Z,6.20
2019-06-26T00:42:22.921Z,6.20
2019-06-26T00:43:41.419Z,6.67
2019-06-26T00:44:33.581Z,6.25
2019-06-26T00:45:38.268Z,6.60
2019-06-26T00:46:42.624Z,6.60
2019-06-26T00:47:47.198Z,6.50
2019-06-26T00:48:51.555Z,6.30
2019-06-26T00:49:56.200Z,6.03
2019-06-26T00:51:00.915Z,6.20
2019-06-26T00:52:05.474Z,6.90
2019-06-26T00:53:09.839Z,6.43
2019-06-26T00:54:14.423Z,6.70
2019-06-26T00:55:18.784Z,5.87
2019-06-26T00:56:23.454Z,5.93
2019-06-26T00:57:27.805Z,6.57
2019-06-26T00:58:32.615Z,5.85
2019-06-26T00:59:37.058Z,6.17
2019-06-26T01:00:47.487Z,6.15
2019-06-26T01:01:52.787Z,6.58
2019-06-26T01:02:58.462Z,6.75
2019-06-26T01:04:04.256Z,6.35
2019-06-26T01:05:10.085Z,7.37
2019-06-26T01:06:32.210Z,6.50
2019-06-26T01:07:36.409Z,6.03
2019-06-26T01:08:41.165Z,6.00
2019-06-26T01:09:46.404Z,5.83
2019-06-26T01:10:51.236Z,5.85
2019-06-26T01:11:55.407Z,5.92
2019-06-26T01:13:00.228Z,5.65
2019-06-26T01:14:04.500Z,6.40
2019-06-26T01:15:10.303Z,5.95
2019-06-26T01:16:14.590Z,6.17
2019-06-26T01:17:19.379Z,6.28
2019-06-26T01:18:23.561Z,6.27
2019-06-26T01:19:28.313Z,6.12
2019-06-26T01:20:32.489Z,6.60
2019-06-26T01:21:37.315Z,6.72
2019-06-26T01:22:42.617Z,6.47
2019-06-26T01:23:47.479Z,6.80
2019-06-26T01:24:51.649Z,5.83
2019-06-26T01:25:56.409Z,6.28
2019-06-26T01:27:00.729Z,6.37
2019-06-26T01:28:05.501Z,6.42
2019-06-26T01:29:09.666Z,6.50
2019-06-26T01:30:15.352Z,6.67
2019-06-26T01:31:19.544Z,6.40
2019-06-26T01:32:24.325Z,6.83
2019-06-26T01:33:28.529Z,6.95
2019-06-26T01:34:33.310Z,6.22
2019-06-26T01:35:37.476Z,6.50
2019-06-26T01:36:42.261Z,6.58
2019-06-26T01:37:46.425Z,6.35
2019-06-26T01:38:51.189Z,6.80
2019-06-26T01:39:55.357Z,6.20
2019-06-26T01:41:00.126Z,7.47
2019-06-26T01:42:05.122Z,7.35
2019-06-26T01:43:10.970Z,6.83
2019-06-26T01:44:15.733Z,7.00
2019-06-26T01:45:20.661Z,6.90
2019-06-26T01:46:24.840Z,6.72
2019-06-26T01:47:30.940Z,6.85
2019-06-26T01:48:35.123Z,6.95
2019-06-26T01:49:39.975Z,6.90
2019-06-26T01:50:44.291Z,7.05
2019-06-26T01:51:49.047Z,6.42
2019-06-26T01:52:53.304Z,6.92
2019-06-26T01:53:58.226Z,6.42
2019-06-26T01:55:02.607Z,7.17
2019-06-26T01:56:07.431Z,6.50
2019-06-26T01:57:11.689Z,6.73
2019-06-26T01:58:16.583Z,6.50
2019-06-26T01:59:20.762Z,7.40
2019-06-26T02:00:25.555Z,6.87
2019-06-26T02:01:29.824Z,7.12
2019-06-26T02:02:34.607Z,6.65
2019-06-26T02:03:38.828Z,5.87
2019-06-26T02:04:43.593Z,6.12
2019-06-26T02:05:47.865Z,6.67
2019-06-26T02:06:52.623Z,6.50
2019-06-26T02:07:56.798Z,6.65
2019-06-26T02:09:01.626Z,6.45
2019-06-26T02:10:08.159Z,6.08
2019-06-26T02:11:12.918Z,6.80
2019-06-26T02:12:17.148Z,6.30
2019-06-26T02:13:21.988Z,6.43
2019-06-26T02:14:31.054Z,6.63
2019-06-26T02:15:32.646Z,6.60
2019-06-26T02:16:36.857Z,6.78
2019-06-26T02:17:41.617Z,6.20
2019-06-26T02:18:49.084Z,6.87
2019-06-26T02:19:53.916Z,7.03
2019-06-26T02:20:58.264Z,5.87
2019-06-26T02:22:02.999Z,6.58
2019-06-26T02:23:07.167Z,6.08
2019-06-26T02:24:12.010Z,6.30
2019-06-26T02:25:16.205Z,6.60
2019-06-26T02:26:21.121Z,6.23
2019-06-26T02:27:25.771Z,6.62
2019-06-26T02:28:30.635Z,6.12
2019-06-26T02:29:34.882Z,6.50
2019-06-26T02:30:40.003Z,6.50
2019-06-26T02:31:44.325Z,6.33
2019-06-26T02:32:49.160Z,6.28
2019-06-26T02:33:54.304Z,6.33
2019-06-26T02:34:59.152Z,6.08
2019-06-26T02:36:03.986Z,5.78
2019-06-26T02:37:08.847Z,6.08
2019-06-26T02:38:13.338Z,5.90
2019-06-26T02:39:18.092Z,6.30
2019-06-26T02:40:22.291Z,5.42
2019-06-26T02:41:27.084Z,5.87
2019-06-26T02:42:31.442Z,5.67
2019-06-26T02:43:36.214Z,5.65
2019-06-26T02:44:53.455Z,5.70
2019-06-26T02:45:46.873Z,5.87
2019-06-26T02:46:51.026Z,5.95
2019-06-26T02:47:55.826Z,5.95
2019-06-26T02:49:00.018Z,5.95
2019-06-26T02:50:07.333Z,6.75
2019-06-26T02:51:11.512Z,6.53
2019-06-26T02:52:16.251Z,6.00
2019-06-26T02:53:20.480Z,6.30
2019-06-26T02:54:25.339Z,5.83
2019-06-26T02:55:29.488Z,5.25
2019-06-26T02:56:34.280Z,6.00
2019-06-26T02:57:38.727Z,5.75
2019-06-26T02:58:43.635Z,5.08
2019-06-26T02:59:47.816Z,5.40
2019-06-26T03:00:52.659Z,5.58
2019-06-26T03:01:56.832Z,5.95
2019-06-26T03:03:01.692Z,5.47
2019-06-26T03:04:05.900Z,5.92
2019-06-26T03:05:10.735Z,5.47
2019-06-26T03:06:14.976Z,5.50
2019-06-26T03:07:19.742Z,5.17
2019-06-26T03:08:23.917Z,5.37
2019-06-26T03:09:28.711Z,5.80
2019-06-26T03:10:33.383Z,6.40
2019-06-26T03:11:38.177Z,5.83
2019-06-26T03:12:42.419Z,6.20
2019-06-26T03:13:47.427Z,5.75
2019-06-26T03:15:07.485Z,6.30
2019-06-26T03:15:58.217Z,6.42
2019-06-26T03:17:02.389Z,6.78
2019-06-26T03:18:07.146Z,5.87
2019-06-26T03:19:11.412Z,6.60
2019-06-26T03:20:19.439Z,6.70
2019-06-26T03:21:23.728Z,6.50
2019-06-26T03:22:28.512Z,6.72
2019-06-26T03:23:32.697Z,6.67
2019-06-26T03:24:37.502Z,7.53
2019-06-26T03:25:42.140Z,7.12
2019-06-26T03:26:46.940Z,7.10
2019-06-26T03:27:51.109Z,6.65
2019-06-26T03:28:55.900Z,6.67
2019-06-26T03:30:00.069Z,7.55
2019-06-26T03:31:05.541Z,6.80
2019-06-26T03:32:09.745Z,6.70
2019-06-26T03:33:14.570Z,7.10
2019-06-26T03:34:18.787Z,7.17
2019-06-26T03:35:23.540Z,7.27
2019-06-26T03:36:27.722Z,6.92
2019-06-26T03:37:32.652Z,7.00
2019-06-26T03:38:36.822Z,6.78
2019-06-26T03:39:41.576Z,6.53
2019-06-26T03:40:45.761Z,7.55
2019-06-26T03:41:50.533Z,6.50
2019-06-26T03:42:54.734Z,6.85
2019-06-26T03:43:59.790Z,6.50
2019-06-26T03:45:24.118Z,6.34
2019-06-26T03:46:14.239Z,7.00
2019-06-26T03:47:18.605Z,6.80
2019-06-26T03:48:23.493Z,6.50
2019-06-26T03:49:27.666Z,7.10
2019-06-26T03:50:32.425Z,6.47
2019-06-26T03:51:36.591Z,6.75
2019-06-26T03:52:41.344Z,6.42
2019-06-26T03:53:45.670Z,6.75
2019-06-26T03:54:50.430Z,6.37
2019-06-26T03:55:54.708Z,6.90
2019-06-26T03:56:59.475Z,7.17
2019-06-26T03:58:03.656Z,7.53
2019-06-26T03:59:08.441Z,7.22
2019-06-26T04:00:13.595Z,7.10
2019-06-26T04:01:18.458Z,6.83
2019-06-26T04:02:23.150Z,7.27
2019-06-26T04:03:27.904Z,6.58
2019-06-26T04:04:32.076Z,7.25
2019-06-26T04:05:36.844Z,7.40
2019-06-26T04:06:41.043Z,7.92
2019-06-26T04:07:45.811Z,7.95
2019-06-26T04:08:49.979Z,7.53
2019-06-26T04:09:54.982Z,7.80
2019-06-26T04:10:59.148Z,8.10
2019-06-26T04:12:05.219Z,9.05
2019-06-26T04:13:09.345Z,8.08
2019-06-26T04:14:14.104Z,8.50
2019-06-26T04:15:18.271Z,8.37
2019-06-26T04:16:23.027Z,8.40
2019-06-26T04:17:27.408Z,8.80
2019-06-26T04:18:32.165Z,8.38
2019-06-26T04:19:36.692Z,8.53
2019-06-26T04:20:41.560Z,8.23
2019-06-26T04:21:45.736Z,9.15
2019-06-26T04:22:52.123Z,8.30
2019-06-26T04:23:56.356Z,9.50
2019-06-26T04:25:01.230Z,9.25
2019-06-26T04:26:05.397Z,9.23
2019-06-26T04:27:10.174Z,9.30
2019-06-26T04:28:14.369Z,8.63
2019-06-26T04:29:19.162Z,8.70
2019-06-26T04:30:23.379Z,9.13
2019-06-26T04:31:28.151Z,8.80
2019-06-26T04:32:32.312Z,9.55
2019-06-26T04:33:37.072Z,9.53
2019-06-26T04:34:41.478Z,9.43
2019-06-26T04:35:46.234Z,9.20
2019-06-26T04:36:51.510Z,9.50
2019-06-26T04:37:56.305Z,9.50
2019-06-26T04:39:00.519Z,9.65
2019-06-26T04:40:08.096Z,9.10
2019-06-26T04:41:12.262Z,9.80
2019-06-26T04:42:17.118Z,9.27
2019-06-26T04:43:21.237Z,9.13
2019-06-26T04:44:25.991Z,8.68
2019-06-26T04:45:30.193Z,9.13
2019-06-26T04:46:34.957Z,9.38
2019-06-26T04:47:39.128Z,8.45
2019-06-26T04:48:43.914Z,9.45
2019-06-26T04:49:48.114Z,10.03
2019-06-26T04:50:52.868Z,9.13
2019-06-26T04:51:57.176Z,8.90
2019-06-26T04:53:02.117Z,9.10
2019-06-26T04:54:06.325Z,7.78
2019-06-26T04:55:11.088Z,6.83
2019-06-26T04:56:15.253Z,7.53
2019-06-26T04:57:20.144Z,7.17
2019-06-26T04:58:24.336Z,7.42
2019-06-26T04:59:29.199Z,7.42
2019-06-26T05:00:33.387Z,7.95
2019-06-26T05:01:38.148Z,8.13
2019-06-26T05:02:43.294Z,8.48
2019-06-26T05:03:48.078Z,8.50
2019-06-26T05:04:52.264Z,7.85
2019-06-26T05:05:57.197Z,8.10
2019-06-26T05:07:01.400Z,8.63
2019-06-26T05:08:06.157Z,8.03
2019-06-26T05:09:10.339Z,8.20
2019-06-26T05:10:15.498Z,7.60
2019-06-26T05:11:19.662Z,8.43
2019-06-26T05:12:24.419Z,8.30
2019-06-26T05:13:28.600Z,8.98
2019-06-26T05:14:33.454Z,8.70
2019-06-26T05:15:37.627Z,8.25
2019-06-26T05:16:42.383Z,8.48
2019-06-26T05:17:46.556Z,8.40
2019-06-26T05:18:51.319Z,8.10
2019-06-26T05:19:55.510Z,8.25
2019-06-26T05:21:00.580Z,7.72
2019-06-26T05:22:04.916Z,7.75
2019-06-26T05:23:09.671Z,7.25
2019-06-26T05:24:14.049Z,7.47
2019-06-26T05:25:21.011Z,8.10
2019-06-26T05:26:25.252Z,8.25
2019-06-26T05:27:30.794Z,8.03
2019-06-26T05:28:35.384Z,7.95
2019-06-26T05:29:40.191Z,8.23
2019-06-26T05:30:44.525Z,8.13
2019-06-26T05:31:49.389Z,7.77
2019-06-26T05:32:53.904Z,7.50
2019-06-26T05:33:58.842Z,7.83
2019-06-26T05:35:03.496Z,7.65
2019-06-26T05:36:08.251Z,7.35
2019-06-26T05:37:12.455Z,7.80
2019-06-26T05:38:17.321Z,7.92
2019-06-26T05:39:21.555Z,7.93
2019-06-26T05:40:26.310Z,7.75
2019-06-26T05:41:30.480Z,7.50
2019-06-26T05:42:35.394Z,7.60
2019-06-26T05:43:39.573Z,8.00
2019-06-26T05:44:44.416Z,8.30
2019-06-26T05:45:48.596Z,7.22
2019-06-26T05:46:53.354Z,7.80
2019-06-26T05:47:58.010Z,7.22
2019-06-26T05:49:02.902Z,7.10
2019-06-26T05:50:07.935Z,6.92
2019-06-26T05:51:12.681Z,6.63
2019-06-26T05:52:16.902Z,6.75
2019-06-26T05:53:21.725Z,6.80
2019-06-26T05:54:25.940Z,6.30
2019-06-26T05:55:30.692Z,6.28
2019-06-26T05:56:34.863Z,6.47
2019-06-26T05:57:41.906Z,6.90
2019-06-26T05:58:45.505Z,5.75
2019-06-26T05:59:50.296Z,5.90
2019-06-26T06:00:54.455Z,5.78
2019-06-26T06:01:59.222Z,5.92
2019-06-26T06:03:03.397Z,5.85
2019-06-26T06:04:08.361Z,5.70
2019-06-26T06:05:12.583Z,5.47
2019-06-26T06:06:17.330Z,5.93
2019-06-26T06:07:21.493Z,5.50
2019-06-26T06:08:26.440Z,6.00
2019-06-26T06:09:30.621Z,6.03
2019-06-26T06:10:35.424Z,5.62
2019-06-26T06:11:40.685Z,5.30
2019-06-26T06:12:45.453Z,5.65
2019-06-26T06:13:49.725Z,5.62
2019-06-26T06:14:54.584Z,5.75
2019-06-26T06:15:58.799Z,5.62
2019-06-26T06:17:03.531Z,5.47
2019-06-26T06:18:07.763Z,5.50
2019-06-26T06:19:12.517Z,5.40
2019-06-26T06:20:19.974Z,5.87
2019-06-26T06:21:24.925Z,5.22
2019-06-26T06:22:29.108Z,5.42
2019-06-26T06:23:33.876Z,4.65
2019-06-26T06:24:38.126Z,5.35
2019-06-26T06:25:42.889Z,5.60
2019-06-26T06:26:47.102Z,5.62
2019-06-26T06:27:51.855Z,5.65
2019-06-26T06:28:56.040Z,5.05
2019-06-26T06:30:00.790Z,4.83
2019-06-26T06:31:04.965Z,5.50
2019-06-26T06:32:09.774Z,5.25
2019-06-26T06:33:13.943Z,5.47
2019-06-26T06:34:18.762Z,5.07
2019-06-26T06:35:22.945Z,5.67
2019-06-26T06:36:27.700Z,5.03
2019-06-26T06:37:31.902Z,5.17
2019-06-26T06:38:37.623Z,5.45
2019-06-26T06:39:41.829Z,5.50
2019-06-26T06:40:46.632Z,5.80
2019-06-26T06:41:50.806Z,5.03
2019-06-26T06:42:55.595Z,5.17
2019-06-26T06:43:59.763Z,5.30
2019-06-26T06:45:07.244Z,4.60
2019-06-26T06:46:11.407Z,5.37
2019-06-26T06:47:16.159Z,5.50
2019-06-26T06:48:20.446Z,5.07
2019-06-26T06:49:25.299Z,5.05
2019-06-26T06:50:29.529Z,5.28
2019-06-26T06:51:34.288Z,5.47
2019-06-26T06:52:38.441Z,4.62
2019-06-26T06:53:43.288Z,5.10
2019-06-26T06:54:48.480Z,4.83
2019-06-26T06:55:53.314Z,5.28
2019-06-26T06:56:57.497Z,5.80
2019-06-26T06:58:02.362Z,5.15
2019-06-26T06:59:06.624Z,5.25
2019-06-26T07:00:12.444Z,5.60
2019-06-26T07:01:16.617Z,5.80
2019-06-26T07:02:21.395Z,4.97
2019-06-26T07:03:25.562Z,5.58
2019-06-26T07:04:30.375Z,5.42
2019-06-26T07:05:34.547Z,5.75
2019-06-26T07:06:39.331Z,5.42
2019-06-26T07:07:43.502Z,5.25
2019-06-26T07:08:48.259Z,5.28
2019-06-26T07:09:52.453Z,5.10
2019-06-26T07:10:57.575Z,5.65
2019-06-26T07:12:01.758Z,4.87
2019-06-26T07:13:06.545Z,5.42
2019-06-26T07:14:10.712Z,5.47
2019-06-26T07:15:17.110Z,5.22
2019-06-26T07:16:21.289Z,5.67
2019-06-26T07:17:26.070Z,6.03
2019-06-26T07:18:30.254Z,5.12
2019-06-26T07:19:35.028Z,5.20
2019-06-26T07:20:39.244Z,5.22
2019-06-26T07:21:44.079Z,5.70
2019-06-26T07:22:48.246Z,5.65
2019-06-26T07:23:52.995Z,5.12
2019-06-26T07:24:57.187Z,5.42
2019-06-26T07:26:02.048Z,5.17
2019-06-26T07:27:06.266Z,5.20
2019-06-26T07:28:11.119Z,6.00
2019-06-26T07:29:15.426Z,5.83
2019-06-26T07:30:20.177Z,5.70
2019-06-26T07:31:24.344Z,5.25
2019-06-26T07:32:29.210Z,6.05
2019-06-26T07:33:33.883Z,5.70
2019-06-26T07:34:38.627Z,5.80
2019-06-26T07:35:42.802Z,5.33
2019-06-26T07:36:47.619Z,5.30
2019-06-26T07:37:51.875Z,5.47
2019-06-26T07:38:56.669Z,5.70
2019-06-26T07:40:02.375Z,5.83
2019-06-26T07:41:07.360Z,5.22
2019-06-26T07:42:11.568Z,5.43
2019-06-26T07:43:16.849Z,5.63
2019-06-26T07:44:21.145Z,5.50
2019-06-26T07:45:25.899Z,5.25
2019-06-26T07:46:30.103Z,5.85
2019-06-26T07:47:42.989Z,5.50
2019-06-26T07:48:41.118Z,6.00
2019-06-26T07:49:45.887Z,5.97
2019-06-26T07:50:50.062Z,5.97
2019-06-26T07:51:54.825Z,6.12
2019-06-26T07:52:59.305Z,6.17
2019-06-26T07:54:04.098Z,5.65
2019-06-26T07:55:11.801Z,5.97
2019-06-26T07:56:16.138Z,6.10
2019-06-26T07:57:20.331Z,6.00
2019-06-26T07:58:25.171Z,5.80
2019-06-26T07:59:29.378Z,5.35
2019-06-26T08:00:34.159Z,5.67
2019-06-26T08:01:38.307Z,5.87
2019-06-26T08:02:43.142Z,5.62
2019-06-26T08:03:47.550Z,5.60
2019-06-26T08:04:52.313Z,5.87
2019-06-26T08:05:56.479Z,6.53
2019-06-26T08:07:01.400Z,5.85
2019-06-26T08:08:05.875Z,6.08
2019-06-26T08:09:10.663Z,5.70
2019-06-26T08:10:15.727Z,5.90
2019-06-26T08:11:20.481Z,5.90
2019-06-26T08:12:24.655Z,5.97
2019-06-26T08:13:29.761Z,5.60
2019-06-26T08:14:33.955Z,6.08
2019-06-26T08:15:38.740Z,5.78
2019-06-26T08:16:42.978Z,5.90
2019-06-26T08:17:59.852Z,5.72
2019-06-26T08:18:53.680Z,5.12
2019-06-26T08:19:58.444Z,6.08
2019-06-26T08:21:11.978Z,5.33
2019-06-26T08:22:09.181Z,6.22
2019-06-26T08:23:13.345Z,6.50
2019-06-26T08:24:18.095Z,5.90
2019-06-26T08:25:22.290Z,6.27
2019-06-26T08:26:27.391Z,5.78
2019-06-26T08:27:31.685Z,5.80
2019-06-26T08:28:36.436Z,6.03
2019-06-26T08:29:40.916Z,6.10
2019-06-26T08:30:45.790Z,5.85
2019-06-26T08:31:50.013Z,5.92
2019-06-26T08:32:55.737Z,6.20
2019-06-26T08:33:59.930Z,5.80
2019-06-26T08:35:08.041Z,6.60
2019-06-26T08:36:12.214Z,5.57
2019-06-26T08:37:16.996Z,6.40
2019-06-26T08:38:21.192Z,5.67
2019-06-26T08:39:25.954Z,5.92
2019-06-26T08:40:30.137Z,6.33
2019-06-26T08:41:34.882Z,5.80
2019-06-26T08:42:39.140Z,5.67
2019-06-26T08:43:43.920Z,6.00
2019-06-26T08:44:48.082Z,5.90
2019-06-26T08:45:52.846Z,5.90
2019-06-26T08:46:57.154Z,5.45
2019-06-26T08:48:16.890Z,5.78
2019-06-26T08:49:24.283Z,5.95
2019-06-26T08:50:14.821Z,6.20
2019-06-26T08:51:18.991Z,5.80
2019-06-26T08:52:23.737Z,5.60
2019-06-26T08:53:28.148Z,5.55
2019-06-26T08:54:32.916Z,6.20
2019-06-26T08:55:37.089Z,5.47
2019-06-26T08:56:41.851Z,6.20
2019-06-26T08:57:46.098Z,6.27
2019-06-26T08:58:50.915Z,5.30
2019-06-26T08:59:55.545Z,5.80
2019-06-26T09:01:00.332Z,6.00
2019-06-26T09:02:04.578Z,5.92
2019-06-26T09:03:09.394Z,5.65
2019-06-26T09:04:13.660Z,5.57
2019-06-26T09:05:18.415Z,5.67
2019-06-26T09:06:22.695Z,5.97
2019-06-26T09:07:27.616Z,5.67
2019-06-26T09:08:32.577Z,6.35
2019-06-26T09:09:37.414Z,5.58
2019-06-26T09:10:44.824Z,5.05
2019-06-26T09:11:48.132Z,5.75
2019-06-26T09:12:52.300Z,5.70
2019-06-26T09:13:58.292Z,5.75
2019-06-26T09:15:02.499Z,5.62
2019-06-26T09:16:07.255Z,5.28
2019-06-26T09:17:11.886Z,5.53
2019-06-26T09:18:34.075Z,5.40
2019-06-26T09:19:23.875Z,6.03
2019-06-26T09:20:34.502Z,6.65
2019-06-26T09:21:38.619Z,5.97
2019-06-26T09:22:43.372Z,5.75
2019-06-26T09:23:47.546Z,6.10
2019-06-26T09:24:52.369Z,5.92
2019-06-26T09:25:56.722Z,5.47
2019-06-26T09:27:01.436Z,6.22
2019-06-26T09:28:05.763Z,5.80
2019-06-26T09:29:10.514Z,6.03
2019-06-26T09:30:14.741Z,6.60
2019-06-26T09:31:19.481Z,5.93
2019-06-26T09:32:23.649Z,5.70
2019-06-26T09:33:32.159Z,5.97
2019-06-26T09:34:34.268Z,6.12
2019-06-26T09:35:39.085Z,6.17
2019-06-26T09:36:43.248Z,6.30
2019-06-26T09:37:47.996Z,5.62
2019-06-26T09:38:52.165Z,5.85
2019-06-26T09:39:56.941Z,5.75
2019-06-26T09:41:01.392Z,5.33
2019-06-26T09:42:06.150Z,5.22
2019-06-26T09:43:10.375Z,5.60
2019-06-26T09:44:15.131Z,6.00
2019-06-26T09:45:19.726Z,5.67
2019-06-26T09:46:24.794Z,5.67
2019-06-26T09:47:31.070Z,6.00
2019-06-26T09:48:51.519Z,6.05
2019-06-26T09:49:42.254Z,6.05
2019-06-26T09:50:47.037Z,6.22
2019-06-26T09:51:51.251Z,5.85
2019-06-26T09:52:56.254Z,5.72
2019-06-26T09:54:00.422Z,6.08
2019-06-26T09:55:06.063Z,5.95
2019-06-26T09:56:10.241Z,5.87
2019-06-26T09:57:15.027Z,6.10
2019-06-26T09:58:19.199Z,6.53
2019-06-26T09:59:23.949Z,6.30
2019-06-26T10:00:28.177Z,6.42
2019-06-26T10:01:32.879Z,6.40
2019-06-26T10:02:37.101Z,6.07
2019-06-26T10:03:45.222Z,6.00
2019-06-26T10:04:48.687Z,6.15
2019-06-26T10:05:53.493Z,5.92
2019-06-26T10:06:57.609Z,6.13
2019-06-26T10:08:02.550Z,6.83
2019-06-26T10:09:08.061Z,7.05
2019-06-26T10:10:13.065Z,6.50
2019-06-26T10:11:17.226Z,6.33
2019-06-26T10:12:21.982Z,5.77
2019-06-26T10:13:26.190Z,5.70
2019-06-26T10:14:46.643Z,6.37
2019-06-26T10:15:36.826Z,6.00
2019-06-26T10:16:41.598Z,6.20
2019-06-26T10:17:45.746Z,6.12
2019-06-26T10:18:50.541Z,6.20
2019-06-26T10:19:54.702Z,6.60
2019-06-26T10:20:59.488Z,6.30
2019-06-26T10:22:04.431Z,6.56
2019-06-26T10:23:09.217Z,6.10
2019-06-26T10:24:13.536Z,6.20
2019-06-26T10:25:18.288Z,6.03
2019-06-26T10:26:22.455Z,6.40
2019-06-26T10:27:27.210Z,6.00
2019-06-26T10:28:31.385Z,6.45
2019-06-26T10:29:36.205Z,6.60
2019-06-26T10:30:40.467Z,6.42
2019-06-26T10:31:45.360Z,5.83
2019-06-26T10:32:49.610Z,6.25
2019-06-26T10:33:54.390Z,6.53
2019-06-26T10:34:58.847Z,6.40
2019-06-26T10:36:03.631Z,5.83
2019-06-26T10:37:07.803Z,6.67
2019-06-26T10:38:12.571Z,6.65
2019-06-26T10:39:16.748Z,6.50
2019-06-26T10:40:21.552Z,5.85
2019-06-26T10:41:25.716Z,5.90
2019-06-26T10:42:30.478Z,7.42
2019-06-26T10:43:34.771Z,5.87
2019-06-26T10:44:39.532Z,5.87
2019-06-26T10:45:43.695Z,6.37
2019-06-26T10:46:49.434Z,5.92
2019-06-26T10:47:53.638Z,6.50
2019-06-26T10:48:58.441Z,6.40
2019-06-26T10:50:03.015Z,6.70
2019-06-26T10:51:07.773Z,6.35
2019-06-26T10:52:11.967Z,6.33
2019-06-26T10:53:16.748Z,6.47
2019-06-26T10:54:21.020Z,6.47
2019-06-26T10:55:25.931Z,6.58
2019-06-26T10:56:30.130Z,5.90
2019-06-26T10:57:34.892Z,5.85
2019-06-26T10:58:39.199Z,5.83
2019-06-26T10:59:43.962Z,6.35
2019-06-26T11:00:48.356Z,6.12
2019-06-26T11:01:53.261Z,6.17
2019-06-26T11:02:57.440Z,5.60
2019-06-26T11:04:02.203Z,5.58
2019-06-26T11:05:08.288Z,5.97
2019-06-26T11:06:13.093Z,5.97
2019-06-26T11:07:17.316Z,5.87
2019-06-26T11:08:22.123Z,6.20
2019-06-26T11:09:26.290Z,5.53
2019-06-26T11:10:31.260Z,6.12
2019-06-26T11:11:35.537Z,5.65
2019-06-26T11:12:40.365Z,5.87
2019-06-26T11:13:44.531Z,5.83
2019-06-26T11:14:49.284Z,5.50
2019-06-26T11:15:53.663Z,5.20
2019-06-26T11:16:58.438Z,5.03
2019-06-26T11:18:02.692Z,5.20
2019-06-26T11:19:07.589Z,4.65
2019-06-26T11:20:12.032Z,4.63
2019-06-26T11:21:18.462Z,4.50
2019-06-26T11:22:22.648Z,5.07
2019-06-26T11:23:27.475Z,4.97
2019-06-26T11:24:31.648Z,5.10
2019-06-26T11:25:36.411Z,5.70
2019-06-26T11:26:40.606Z,5.45
2019-06-26T11:27:45.419Z,5.30
2019-06-26T11:28:49.586Z,4.55
2019-06-26T11:29:54.409Z,4.47
2019-06-26T11:30:58.585Z,5.10
2019-06-26T11:32:03.403Z,5.25
2019-06-26T11:33:07.681Z,5.42
2019-06-26T11:34:12.465Z,5.62
2019-06-26T11:35:16.635Z,4.63
2019-06-26T11:36:21.493Z,4.93
2019-06-26T11:37:25.818Z,4.75
2019-06-26T11:38:30.609Z,5.00
2019-06-26T11:39:34.848Z,4.95
2019-06-26T11:40:39.721Z,4.80
2019-06-26T11:41:43.931Z,4.78
2019-06-26T11:42:48.682Z,5.15
2019-06-26T11:43:53.280Z,5.30
2019-06-26T11:45:03.044Z,4.65
2019-06-26T11:46:07.249Z,4.53
2019-06-26T11:47:11.999Z,4.20
2019-06-26T11:48:16.293Z,4.63
2019-06-26T11:49:21.202Z,4.53
2019-06-26T11:50:25.474Z,4.60
2019-06-26T11:51:30.234Z,4.55
2019-06-26T11:52:35.010Z,4.60
2019-06-26T11:53:39.854Z,4.72
2019-06-26T11:54:44.073Z,4.78
2019-06-26T11:55:48.804Z,5.10
2019-06-26T11:56:52.995Z,5.37
2019-06-26T11:57:57.744Z,5.22
2019-06-26T11:59:01.943Z,4.95
2019-06-26T12:00:12.059Z,4.80
2019-06-26T12:02:20.056Z,4.28
2019-06-26T12:03:24.489Z,4.40
2019-06-26T12:04:29.034Z,4.65
2019-06-26T12:05:33.401Z,4.87
2019-06-26T12:06:38.161Z,4.45
2019-06-26T12:07:42.523Z,4.75
2019-06-26T12:08:47.123Z,4.85
2019-06-26T12:09:51.584Z,5.08
2019-06-26T12:10:56.246Z,4.75
2019-06-26T12:12:00.981Z,4.20
2019-06-26T12:13:05.600Z,4.47
2019-06-26T12:14:09.982Z,4.73
2019-06-26T12:15:15.071Z,4.73
2019-06-26T12:16:19.446Z,5.03
2019-06-26T12:17:24.077Z,4.45
2019-06-26T12:18:28.449Z,4.92
2019-06-26T12:19:33.022Z,4.72
2019-06-26T12:20:37.363Z,4.28
2019-06-26T12:21:41.943Z,4.33
2019-06-26T12:22:47.433Z,4.40
2019-06-26T12:23:53.047Z,4.50
2019-06-26T12:24:57.436Z,4.83
2019-06-26T12:26:01.983Z,4.55
2019-06-26T12:27:06.438Z,4.53
2019-06-26T12:28:11.029Z,4.23
2019-06-26T12:29:15.396Z,4.77
2019-06-26T12:30:19.958Z,4.20
2019-06-26T12:31:24.601Z,4.42
2019-06-26T12:32:29.426Z,4.78
2019-06-26T12:33:33.858Z,4.47
2019-06-26T12:34:38.420Z,4.75
2019-06-26T12:35:42.861Z,4.72
2019-06-26T12:36:48.427Z,4.20
2019-06-26T12:37:52.927Z,4.35
2019-06-26T12:38:57.548Z,4.58
2019-06-26T12:40:03.263Z,4.85
2019-06-26T12:41:08.038Z,4.75
2019-06-26T12:42:12.481Z,4.37
2019-06-26T12:43:17.057Z,4.17
2019-06-26T12:44:21.480Z,4.33
2019-06-26T12:45:26.036Z,4.62
2019-06-26T12:46:30.490Z,3.95
2019-06-26T12:47:35.078Z,4.50
2019-06-26T12:48:39.548Z,4.30
2019-06-26T12:49:44.082Z,4.15
2019-06-26T12:50:48.443Z,4.33
2019-06-26T12:51:53.026Z,4.10
2019-06-26T12:52:57.415Z,4.80
2019-06-26T12:54:02.004Z,3.92
2019-06-26T12:55:06.772Z,3.92
2019-06-26T12:56:11.325Z,4.87
2019-06-26T12:57:15.716Z,4.58
2019-06-26T12:58:20.406Z,4.53
2019-06-26T12:59:24.859Z,4.20
2019-06-26T13:00:29.579Z,4.28
2019-06-26T13:01:33.954Z,3.98
2019-06-26T13:02:38.503Z,4.20
2019-06-26T13:03:42.877Z,4.42
2019-06-26T13:04:47.455Z,4.50
2019-06-26T13:05:51.822Z,4.03
2019-06-26T13:06:58.925Z,4.80
2019-06-26T13:08:02.544Z,4.35
2019-06-26T13:09:08.407Z,3.98
2019-06-26T13:10:13.151Z,4.00
2019-06-26T13:11:17.687Z,4.23
2019-06-26T13:12:22.175Z,3.30
2019-06-26T13:13:26.792Z,4.45
2019-06-26T13:14:31.167Z,4.03
2019-06-26T13:15:35.752Z,4.37
2019-06-26T13:16:40.258Z,4.42
2019-06-26T13:17:44.851Z,4.00
2019-06-26T13:18:49.223Z,3.77
2019-06-26T13:19:53.756Z,4.08
2019-06-26T13:20:58.223Z,4.30
2019-06-26T13:22:03.033Z,4.47
2019-06-26T13:23:07.448Z,4.30
2019-06-26T13:24:12.011Z,4.10
2019-06-26T13:25:16.439Z,4.47
2019-06-26T13:26:21.139Z,4.20
2019-06-26T13:27:25.466Z,4.08
2019-06-26T13:28:30.372Z,4.20
2019-06-26T13:29:34.996Z,4.22
2019-06-26T13:30:39.735Z,4.12
2019-06-26T13:31:44.252Z,4.47
2019-06-26T13:32:48.872Z,4.37
2019-06-26T13:33:54.215Z,4.08
2019-06-26T13:34:59.867Z,3.90
2019-06-26T13:36:05.128Z,4.12
2019-06-26T13:37:09.732Z,4.05
2019-06-26T13:38:14.134Z,4.30
2019-06-26T13:39:18.732Z,4.30
2019-06-26T13:40:23.083Z,3.93
2019-06-26T13:41:27.634Z,4.20
2019-06-26T13:42:32.046Z,3.90
2019-06-26T13:43:37.569Z,4.05
2019-06-26T13:44:41.981Z,4.33
2019-06-26T13:45:47.498Z,4.30
2019-06-26T13:46:51.877Z,4.42
2019-06-26T13:47:56.509Z,4.17
2019-06-26T13:49:00.932Z,3.92
2019-06-26T13:50:07.593Z,4.17
2019-06-26T13:51:11.906Z,4.25
2019-06-26T13:52:16.474Z,4.33
2019-06-26T13:53:20.869Z,4.07
2019-06-26T13:54:25.570Z,4.57
2019-06-26T13:55:29.946Z,4.40
2019-06-26T13:56:34.508Z,4.47
2019-06-26T13:57:39.069Z,4.62
2019-06-26T13:58:43.625Z,3.98
2019-06-26T13:59:48.141Z,4.58
2019-06-26T14:00:52.788Z,4.70
2019-06-26T14:01:57.328Z,4.65
2019-06-26T14:03:01.913Z,4.25
2019-06-26T14:04:06.306Z,4.53
2019-06-26T14:05:11.400Z,4.62
2019-06-26T14:06:15.776Z,4.12
2019-06-26T14:07:20.323Z,4.63
2019-06-26T14:08:24.716Z,4.53
2019-06-26T14:09:30.356Z,4.25
2019-06-26T14:10:34.978Z,4.65
2019-06-26T14:11:40.587Z,4.58
2019-06-26T14:12:45.116Z,5.33
2019-06-26T14:13:49.680Z,4.60
2019-06-26T14:14:57.820Z,4.40
2019-06-26T14:16:00.386Z,4.95
2019-06-26T14:17:05.727Z,4.65
2019-06-26T14:18:10.315Z,4.50
2019-06-26T14:19:14.701Z,4.23
2019-06-26T14:20:19.227Z,4.63
2019-06-26T14:21:25.926Z,4.50
2019-06-26T14:22:29.889Z,4.37